createdAt,value
2019-06-27T00:00:00.052Z,53.22
2019-06-27T00:00:37.302Z,53.25
2019-06-27T00:01:13.950Z,53.18
2019-06-27T00:01:50.305Z,53.27
2019-06-27T00:02:27.813Z,53.22
2019-06-27T00:03:05.340Z,53.40
2019-06-27T00:03:41.518Z,53.51
2019-06-27T00:04:18.140Z,53.62
2019-06-27T00:04:54.746Z,53.66
2019-06-27T00:05:30.805Z,53.78
2019-06-27T00:06:07.771Z,53.87
2019-06-27T00:06:44.551Z,53.79
2019-06-27T00:07:21.031Z,53.95
2019-06-27T00:07:58.073Z,54.01
2019-06-27T00:08:35.195Z,54.08
2019-06-27T00:09:12.503Z,53.99
2019-06-27T00:09:49.510Z,54.19
2019-06-27T00:10:26.225Z,54.18
2019-06-27T00:11:02.294Z,54.16
2019-06-27T00:11:38.969Z,54.30
2019-06-27T00:12:15.586Z,54.19
2019-06-27T00:12:51.729Z,54.21
2019-06-27T00:13:28.357Z,53.78
2019-06-27T00:14:05.125Z,53.90
2019-06-27T00:14:41.220Z,53.99
2019-06-27T00:15:17.938Z,53.95
2019-06-27T00:15:54.597Z,54.04
2019-06-27T00:16:30.641Z,54.10
2019-06-27T00:17:07.731Z,54.24
2019-06-27T00:17:44.394Z,54.40
2019-06-27T00:18:20.464Z,54.41
2019-06-27T00:18:57.079Z,54.42
2019-06-27T00:19:33.725Z,54.61
2019-06-27T00:20:10.111Z,54.68
2019-06-27T00:20:46.777Z,54.75
2019-06-27T00:21:24.225Z,54.69
2019-06-27T00:22:00.750Z,54.74
2019-06-27T00:22:41.138Z,54.83
2019-06-27T00:23:17.095Z,54.78
2019-06-27T00:23:53.236Z,54.83
2019-06-27T00:24:29.866Z,54.91
2019-06-27T00:25:06.800Z,55.01
2019-06-27T00:25:43.424Z,55.09
2019-06-27T00:26:20.419Z,55.08
2019-06-27T00:26:57.791Z,55.08
2019-06-27T00:27:34.363Z,54.98
2019-06-27T00:28:11.053Z,54.91
2019-06-27T00:28:47.660Z,54.87
2019-06-27T00:29:23.687Z,54.83
2019-06-27T00:30:00.562Z,54.98
2019-06-27T00:30:37.487Z,54.92
2019-06-27T00:31:13.536Z,54.81
2019-06-27T00:31:50.165Z,54.84
2019-06-27T00:32:27.132Z,54.91
2019-06-27T00:33:03.190Z,54.78
2019-06-27T00:33:39.831Z,54.99
2019-06-27T00:34:16.587Z,55.15
2019-06-27T00:34:52.614Z,55.13
2019-06-27T00:35:29.220Z,55.04
2019-06-27T00:36:06.356Z,55.03
2019-06-27T00:36:42.705Z,54.99
2019-06-27T00:37:19.306Z,55.02
2019-06-27T00:37:56.270Z,55.12
2019-06-27T00:38:33.668Z,55.17
2019-06-27T00:39:11.601Z,55.27
2019-06-27T00:39:48.513Z,55.33
2019-06-27T00:40:24.544Z,55.43
2019-06-27T00:41:01.189Z,55.50
2019-06-27T00:41:37.811Z,55.51
2019-06-27T00:42:14.180Z,55.49
2019-06-27T00:42:50.792Z,55.27
2019-06-27T00:43:27.393Z,55.26
2019-06-27T00:44:03.515Z,55.16
2019-06-27T00:44:40.358Z,55.38
2019-06-27T00:45:17.075Z,55.23
2019-06-27T00:45:53.103Z,55.13
2019-06-27T00:46:29.758Z,55.24
2019-06-27T00:47:06.499Z,55.11
2019-06-27T00:47:42.572Z,55.12
2019-06-27T00:48:19.200Z,55.29
2019-06-27T00:48:55.820Z,55.49
2019-06-27T00:49:32.148Z,55.58
2019-06-27T00:50:09.290Z,55.36
2019-06-27T00:50:46.369Z,55.40
2019-06-27T00:51:22.440Z,55.65
2019-06-27T00:51:59.325Z,55.59
2019-06-27T00:52:36.124Z,55.59
2019-06-27T00:53:12.216Z,55.58
2019-06-27T00:53:48.819Z,55.48
2019-06-27T00:54:25.426Z,55.37
2019-06-27T00:55:01.444Z,55.40
2019-06-27T00:55:38.133Z,55.31
2019-06-27T00:56:14.898Z,55.42
2019-06-27T00:56:51.172Z,55.53
2019-06-27T00:57:28.036Z,55.57
2019-06-27T00:58:05.110Z,55.86
2019-06-27T00:58:41.150Z,55.70
2019-06-27T00:59:17.753Z,55.92
2019-06-27T00:59:54.472Z,56.00
2019-06-27T01:00:30.842Z,56.16
2019-06-27T01:01:07.631Z,56.15
2019-06-27T01:01:44.259Z,56.21
2019-06-27T01:02:20.265Z,56.28
2019-06-27T01:02:57.128Z,56.28
2019-06-27T01:03:33.815Z,56.36
2019-06-27T01:04:12.822Z,56.21
2019-06-27T01:04:49.742Z,56.25
2019-06-27T01:05:26.805Z,56.11
2019-06-27T01:06:03.297Z,56.10
2019-06-27T01:06:40.465Z,56.19
2019-06-27T01:07:17.122Z,56.28
2019-06-27T01:07:53.159Z,56.30
2019-06-27T01:08:29.779Z,56.25
2019-06-27T01:09:07.794Z,56.30
2019-06-27T01:09:43.910Z,56.20
2019-06-27T01:10:20.917Z,56.29
2019-06-27T01:10:57.560Z,56.19
2019-06-27T01:11:34.193Z,56.18
2019-06-27T01:12:10.914Z,56.28
2019-06-27T01:12:47.540Z,56.34
2019-06-27T01:13:23.584Z,56.39
2019-06-27T01:14:00.232Z,56.43
2019-06-27T01:14:36.903Z,56.46
2019-06-27T01:15:12.953Z,56.31
2019-06-27T01:15:49.564Z,56.31
2019-06-27T01:16:26.203Z,56.55
2019-06-27T01:17:02.597Z,56.60
2019-06-27T01:17:39.287Z,56.75
2019-06-27T01:18:15.912Z,56.66
2019-06-27T01:18:51.986Z,56.77
2019-06-27T01:19:28.599Z,56.92
2019-06-27T01:20:06.179Z,56.97
2019-06-27T01:20:42.248Z,57.08
2019-06-27T01:21:19.268Z,57.18
2019-06-27T01:21:55.849Z,56.99
2019-06-27T01:22:32.692Z,56.90
2019-06-27T01:23:09.344Z,57.00
2019-06-27T01:23:45.982Z,57.06
2019-06-27T01:24:22.356Z,57.14
2019-06-27T01:24:59.300Z,57.15
2019-06-27T01:25:36.011Z,57.25
2019-06-27T01:26:12.129Z,57.03
2019-06-27T01:26:49.085Z,57.10
2019-06-27T01:27:30.062Z,56.96
2019-06-27T01:28:03.604Z,57.08
2019-06-27T01:28:40.564Z,57.11
2019-06-27T01:29:17.610Z,57.29
2019-06-27T01:29:53.635Z,57.10
2019-06-27T01:30:30.241Z,57.31
2019-06-27T01:31:07.284Z,57.21
2019-06-27T01:31:43.508Z,57.35
2019-06-27T01:32:20.109Z,57.42
2019-06-27T01:32:56.811Z,57.40
2019-06-27T01:33:33.228Z,57.39
2019-06-27T01:34:09.903Z,57.44
2019-06-27T01:34:46.520Z,57.50
2019-06-27T01:35:23.084Z,57.59
2019-06-27T01:35:59.696Z,57.63
2019-06-27T01:36:36.375Z,57.62
2019-06-27T01:37:12.419Z,57.67
2019-06-27T01:37:49.305Z,57.67
2019-06-27T01:38:25.920Z,57.64
2019-06-27T01:39:01.938Z,57.75
2019-06-27T01:39:38.688Z,57.54
2019-06-27T01:40:18.277Z,57.56
2019-06-27T01:40:54.295Z,57.82
2019-06-27T01:41:30.930Z,57.78
2019-06-27T01:42:08.012Z,57.70
2019-06-27T01:42:44.019Z,57.63
2019-06-27T01:43:21.005Z,57.74
2019-06-27T01:43:57.645Z,57.81
2019-06-27T01:44:42.122Z,57.88
2019-06-27T01:45:26.402Z,58.14
2019-06-27T01:46:03.034Z,58.26
2019-06-27T01:46:39.174Z,58.28
2019-06-27T01:47:15.795Z,58.32
2019-06-27T01:47:52.398Z,58.09
2019-06-27T01:48:28.424Z,58.09
2019-06-27T01:49:05.543Z,58.21
2019-06-27T01:49:42.171Z,58.22
2019-06-27T01:50:18.186Z,58.30
2019-06-27T01:50:55.111Z,58.12
2019-06-27T01:51:31.935Z,58.17
2019-06-27T01:52:07.971Z,58.28
2019-06-27T01:52:44.884Z,58.35
2019-06-27T01:53:21.949Z,58.34
2019-06-27T01:53:57.996Z,58.20
2019-06-27T01:54:34.932Z,58.20
2019-06-27T01:55:11.979Z,58.24
2019-06-27T01:55:47.982Z,58.39
2019-06-27T01:56:24.628Z,58.63
2019-06-27T01:57:01.485Z,58.71
2019-06-27T01:57:46.505Z,58.59
2019-06-27T01:58:15.801Z,58.75
2019-06-27T01:58:52.437Z,58.67
2019-06-27T01:59:28.831Z,58.71
2019-06-27T02:00:06.833Z,58.69
2019-06-27T02:00:43.868Z,58.79
2019-06-27T02:01:19.862Z,58.82
2019-06-27T02:01:56.685Z,58.85
2019-06-27T02:02:33.702Z,58.96
2019-06-27T02:03:09.787Z,58.79
2019-06-27T02:03:47.120Z,58.89
2019-06-27T02:04:23.711Z,58.96
2019-06-27T02:05:00.269Z,58.95
2019-06-27T02:05:36.950Z,59.10
2019-06-27T02:06:13.685Z,59.14
2019-06-27T02:06:50.147Z,59.17
2019-06-27T02:07:26.755Z,59.32
2019-06-27T02:08:03.718Z,59.61
2019-06-27T02:08:40.471Z,59.70
2019-06-27T02:09:17.179Z,59.64
2019-06-27T02:09:54.154Z,59.61
2019-06-27T02:10:30.175Z,59.62
2019-06-27T02:11:06.900Z,59.68
2019-06-27T02:11:43.524Z,59.62
2019-06-27T02:12:19.678Z,59.79
2019-06-27T02:12:56.311Z,59.89
2019-06-27T02:13:35.341Z,59.87
2019-06-27T02:14:11.862Z,59.91
2019-06-27T02:14:48.859Z,59.76
2019-06-27T02:15:26.196Z,59.74
2019-06-27T02:16:02.296Z,59.66
2019-06-27T02:16:39.014Z,59.45
2019-06-27T02:17:15.687Z,59.57
2019-06-27T02:17:52.060Z,59.50
2019-06-27T02:18:28.678Z,59.42
2019-06-27T02:19:05.510Z,59.62
2019-06-27T02:19:41.608Z,59.66
2019-06-27T02:20:19.389Z,59.65
2019-06-27T02:20:55.999Z,59.57
2019-06-27T02:21:32.072Z,59.70
2019-06-27T02:22:08.887Z,59.84
2019-06-27T02:22:45.582Z,60.00
2019-06-27T02:23:21.618Z,59.85
2019-06-27T02:23:58.222Z,59.80
2019-06-27T02:24:35.195Z,59.82
2019-06-27T02:25:11.773Z,60.10
2019-06-27T02:25:48.356Z,60.37
2019-06-27T02:26:25.826Z,60.41
2019-06-27T02:27:01.968Z,60.48
2019-06-27T02:27:39.240Z,60.10
2019-06-27T02:28:16.220Z,60.22
2019-06-27T02:28:52.252Z,60.36
2019-06-27T02:29:28.847Z,60.42
2019-06-27T02:30:06.078Z,60.41
2019-06-27T02:30:43.489Z,60.34
2019-06-27T02:31:20.260Z,60.33
2019-06-27T02:31:56.946Z,60.26
2019-06-27T02:32:33.300Z,60.19
2019-06-27T02:33:10.040Z,60.17
2019-06-27T02:33:46.649Z,60.28
2019-06-27T02:34:22.955Z,60.29
2019-06-27T02:34:59.618Z,60.26
2019-06-27T02:35:36.431Z,60.31
2019-06-27T02:36:12.466Z,60.33
2019-06-27T02:36:49.101Z,60.25
2019-06-27T02:37:25.718Z,60.30
2019-06-27T02:38:02.246Z,60.28
2019-06-27T02:38:38.975Z,60.21
2019-06-27T02:39:15.947Z,60.23
2019-06-27T02:39:51.949Z,60.17
2019-06-27T02:40:28.564Z,60.02
2019-06-27T02:41:05.454Z,59.99
2019-06-27T02:41:41.860Z,60.28
2019-06-27T02:42:18.459Z,60.29
2019-06-27T02:42:55.212Z,60.23
2019-06-27T02:43:31.274Z,60.02
2019-06-27T02:44:07.984Z,60.16
2019-06-27T02:44:44.597Z,60.20
2019-06-27T02:45:20.935Z,60.07
2019-06-27T02:45:57.544Z,60.17
2019-06-27T02:46:35.518Z,60.18
2019-06-27T02:47:11.572Z,60.15
2019-06-27T02:47:48.213Z,60.18
2019-06-27T02:48:24.844Z,60.12
2019-06-27T02:49:00.862Z,60.18
2019-06-27T02:49:37.645Z,60.14
2019-06-27T02:50:14.312Z,60.07
2019-06-27T02:50:50.354Z,59.96
2019-06-27T02:51:26.966Z,60.07
2019-06-27T02:52:03.797Z,60.16
2019-06-27T02:52:40.027Z,60.11
2019-06-27T02:53:17.050Z,60.13
2019-06-27T02:53:53.662Z,60.28
2019-06-27T02:54:30.112Z,60.23
2019-06-27T02:55:06.967Z,60.28
2019-06-27T02:55:43.583Z,60.30
2019-06-27T02:56:19.605Z,60.22
2019-06-27T02:56:56.222Z,60.07
2019-06-27T02:57:32.840Z,60.01
2019-06-27T02:58:28.873Z,59.91
2019-06-27T02:58:47.464Z,59.99
2019-06-27T02:59:24.121Z,59.86
2019-06-27T03:00:00.452Z,59.63
2019-06-27T03:00:37.414Z,59.64
2019-06-27T03:01:14.067Z,59.84
2019-06-27T03:01:50.074Z,59.78
2019-06-27T03:02:26.775Z,59.87
2019-06-27T03:03:03.578Z,59.91
2019-06-27T03:03:39.750Z,59.99
2019-06-27T03:04:16.353Z,60.05
2019-06-27T03:04:53.048Z,60.13
2019-06-27T03:05:29.079Z,60.16
2019-06-27T03:06:05.940Z,60.16
2019-06-27T03:06:43.218Z,59.96
2019-06-27T03:07:19.359Z,60.01
2019-06-27T03:07:55.995Z,59.91
2019-06-27T03:08:32.762Z,60.04
2019-06-27T03:09:08.913Z,60.20
2019-06-27T03:09:45.647Z,60.07
2019-06-27T03:10:23.785Z,60.00
2019-06-27T03:10:59.826Z,60.08
2019-06-27T03:11:36.806Z,60.31
2019-06-27T03:12:13.464Z,60.35
2019-06-27T03:12:49.830Z,59.96
2019-06-27T03:13:26.474Z,60.11
2019-06-27T03:14:03.358Z,60.30
2019-06-27T03:14:39.988Z,60.49
2019-06-27T03:15:16.877Z,60.38
2019-06-27T03:15:53.495Z,60.30
2019-06-27T03:16:29.616Z,60.25
2019-06-27T03:17:06.476Z,60.26
2019-06-27T03:17:43.192Z,60.33
2019-06-27T03:18:19.305Z,60.20
2019-06-27T03:18:55.918Z,60.19
2019-06-27T03:19:33.525Z,60.29
2019-06-27T03:20:10.844Z,60.45
2019-06-27T03:20:48.211Z,60.51
2019-06-27T03:21:25.161Z,60.58
2019-06-27T03:22:05.371Z,60.52
2019-06-27T03:22:40.156Z,60.67
2019-06-27T03:23:16.814Z,60.80
2019-06-27T03:23:52.870Z,60.82
2019-06-27T03:24:29.581Z,60.82
2019-06-27T03:25:06.871Z,60.80
2019-06-27T03:25:42.931Z,60.81
2019-06-27T03:26:19.517Z,60.79
2019-06-27T03:26:56.124Z,60.87
2019-06-27T03:27:32.324Z,60.93
2019-06-27T03:28:08.941Z,60.77
2019-06-27T03:28:52.746Z,60.74
2019-06-27T03:29:23.935Z,60.70
2019-06-27T03:30:00.552Z,60.74
2019-06-27T03:30:37.261Z,60.82
2019-06-27T03:31:13.344Z,60.73
2019-06-27T03:31:49.912Z,60.48
2019-06-27T03:32:26.508Z,60.38
2019-06-27T03:33:02.638Z,60.34
2019-06-27T03:33:39.365Z,60.28
2019-06-27T03:34:15.965Z,60.50
2019-06-27T03:34:51.982Z,60.54
2019-06-27T03:35:28.593Z,60.46
2019-06-27T03:36:05.304Z,60.51
2019-06-27T03:36:41.903Z,60.68
2019-06-27T03:37:18.516Z,60.97
2019-06-27T03:37:55.116Z,60.72
2019-06-27T03:38:31.168Z,60.41
2019-06-27T03:39:08.114Z,60.55
2019-06-27T03:39:44.791Z,60.45
2019-06-27T03:40:21.442Z,60.66
2019-06-27T03:40:58.070Z,60.56
2019-06-27T03:41:35.240Z,60.66
2019-06-27T03:42:11.468Z,60.63
2019-06-27T03:42:48.075Z,60.71
2019-06-27T03:43:25.117Z,60.74
2019-06-27T03:44:01.186Z,60.73
2019-06-27T03:44:37.948Z,60.68
2019-06-27T03:45:16.124Z,60.59
2019-06-27T03:45:52.706Z,60.60
2019-06-27T03:46:29.333Z,60.42
2019-06-27T03:47:05.998Z,60.48
2019-06-27T03:47:42.070Z,60.49
2019-06-27T03:48:18.718Z,60.50
2019-06-27T03:48:55.397Z,60.42
2019-06-27T03:49:31.449Z,60.40
2019-06-27T03:50:08.537Z,60.38
2019-06-27T03:50:44.921Z,60.03
2019-06-27T03:51:20.939Z,60.03
2019-06-27T03:51:57.546Z,60.00
2019-06-27T03:52:34.307Z,60.16
2019-06-27T03:53:10.340Z,60.31
2019-06-27T03:53:47.295Z,60.20
2019-06-27T03:54:23.917Z,60.25
2019-06-27T03:54:59.956Z,60.33
2019-06-27T03:55:36.573Z,60.35
2019-06-27T03:56:13.248Z,60.53
2019-06-27T03:56:49.270Z,60.67
2019-06-27T03:57:25.875Z,60.61
2019-06-27T03:58:02.483Z,60.39
2019-06-27T03:58:38.921Z,60.14
2019-06-27T03:59:15.580Z,60.12
2019-06-27T03:59:52.172Z,60.10
2019-06-27T04:00:32.795Z,60.25
2019-06-27T04:01:09.502Z,60.36
2019-06-27T04:01:46.175Z,60.54
2019-06-27T04:02:22.616Z,60.39
2019-06-27T04:02:59.218Z,60.26
2019-06-27T04:03:36.102Z,60.13
2019-06-27T04:04:15.451Z,60.04
2019-06-27T04:04:52.062Z,60.06
2019-06-27T04:05:28.676Z,60.11
2019-06-27T04:06:04.750Z,60.05
2019-06-27T04:06:41.391Z,60.17
2019-06-27T04:07:18.006Z,60.12
2019-06-27T04:07:54.032Z,60.32
2019-06-27T04:08:30.710Z,60.23
2019-06-27T04:09:07.782Z,60.32
2019-06-27T04:09:44.165Z,60.27
2019-06-27T04:10:20.794Z,60.21
2019-06-27T04:10:57.913Z,60.11
2019-06-27T04:11:34.267Z,59.96
2019-06-27T04:12:11.059Z,59.68
2019-06-27T04:12:47.761Z,59.26
2019-06-27T04:13:24.351Z,59.32
2019-06-27T04:14:01.234Z,59.60
2019-06-27T04:14:37.899Z,59.64
2019-06-27T04:15:14.260Z,59.43
2019-06-27T04:15:51.188Z,59.63
2019-06-27T04:16:27.811Z,59.65
2019-06-27T04:17:03.962Z,59.62
2019-06-27T04:17:40.902Z,59.78
2019-06-27T04:18:17.882Z,59.91
2019-06-27T04:18:53.894Z,59.89
2019-06-27T04:19:30.896Z,59.68
2019-06-27T04:20:07.783Z,59.75
2019-06-27T04:20:44.079Z,59.54
2019-06-27T04:21:20.670Z,59.54
2019-06-27T04:21:57.264Z,59.61
2019-06-27T04:22:33.330Z,59.63
2019-06-27T04:23:09.988Z,59.67
2019-06-27T04:23:46.618Z,59.62
2019-06-27T04:24:22.695Z,59.60
2019-06-27T04:24:59.658Z,59.35
2019-06-27T04:25:36.309Z,59.17
2019-06-27T04:26:12.828Z,59.32
2019-06-27T04:26:49.523Z,59.52
2019-06-27T04:27:26.180Z,59.54
2019-06-27T04:28:02.511Z,59.62
2019-06-27T04:28:39.285Z,59.71
2019-06-27T04:29:32.826Z,59.47
2019-06-27T04:29:53.675Z,59.04
2019-06-27T04:30:30.465Z,59.11
2019-06-27T04:31:07.153Z,58.98
2019-06-27T04:31:43.220Z,58.96
2019-06-27T04:32:20.075Z,58.76
2019-06-27T04:32:56.758Z,58.97
2019-06-27T04:33:32.768Z,58.77
2019-06-27T04:34:09.849Z,58.74
2019-06-27T04:34:46.866Z,58.63
2019-06-27T04:35:22.866Z,58.64
2019-06-27T04:35:59.504Z,58.70
2019-06-27T04:36:36.479Z,58.61
2019-06-27T04:37:13.102Z,58.82
2019-06-27T04:37:49.730Z,58.92
2019-06-27T04:38:26.328Z,58.94
2019-06-27T04:39:02.474Z,58.90
2019-06-27T04:39:39.679Z,58.74
2019-06-27T04:40:16.787Z,58.56
2019-06-27T04:40:52.819Z,58.57
2019-06-27T04:41:29.498Z,58.71
2019-06-27T04:42:06.278Z,58.60
2019-06-27T04:42:42.765Z,58.43
2019-06-27T04:43:19.355Z,58.43
2019-06-27T04:43:56.397Z,58.52
2019-06-27T04:44:32.871Z,58.50
2019-06-27T04:45:09.754Z,58.36
2019-06-27T04:45:46.452Z,58.34
2019-06-27T04:46:22.521Z,58.47
2019-06-27T04:46:59.137Z,58.43
2019-06-27T04:47:36.001Z,58.50
2019-06-27T04:48:12.066Z,58.86
2019-06-27T04:48:48.828Z,58.75
2019-06-27T04:49:25.427Z,58.53
2019-06-27T04:50:01.530Z,58.43
2019-06-27T04:50:38.645Z,58.25
2019-06-27T04:51:15.605Z,58.19
2019-06-27T04:51:51.713Z,58.13
2019-06-27T04:52:28.495Z,58.05
2019-06-27T04:53:05.591Z,57.87
2019-06-27T04:53:41.998Z,58.03
2019-06-27T04:54:18.895Z,57.95
2019-06-27T04:54:56.081Z,57.81
2019-06-27T04:55:32.242Z,57.83
2019-06-27T04:56:08.879Z,57.79
2019-06-27T04:56:45.747Z,58.05
2019-06-27T04:57:22.117Z,57.97
2019-06-27T04:57:58.803Z,57.62
2019-06-27T04:58:35.648Z,57.49
2019-06-27T04:59:11.799Z,57.43
2019-06-27T04:59:54.028Z,57.29
2019-06-27T05:00:31.004Z,57.49
2019-06-27T05:01:07.173Z,58.00
2019-06-27T05:01:43.809Z,57.97
2019-06-27T05:02:20.497Z,58.11
2019-06-27T05:02:57.011Z,58.21
2019-06-27T05:03:33.822Z,58.14
2019-06-27T05:04:10.477Z,58.10
2019-06-27T05:04:46.538Z,58.20
2019-06-27T05:05:24.273Z,57.99
2019-06-27T05:06:00.916Z,57.71
2019-06-27T05:06:37.167Z,57.49
2019-06-27T05:07:16.685Z,57.55
2019-06-27T05:07:53.395Z,57.58
2019-06-27T05:08:29.460Z,57.61
2019-06-27T05:09:06.322Z,57.21
2019-06-27T05:09:43.075Z,57.29
2019-06-27T05:10:19.141Z,57.41
2019-06-27T05:10:55.752Z,57.26
2019-06-27T05:11:32.359Z,57.04
2019-06-27T05:12:08.506Z,57.12
2019-06-27T05:12:45.215Z,57.32
2019-06-27T05:13:21.873Z,57.33
2019-06-27T05:13:57.944Z,57.25
2019-06-27T05:14:34.666Z,56.98
2019-06-27T05:15:11.395Z,57.15
2019-06-27T05:15:47.399Z,57.19
2019-06-27T05:16:24.001Z,57.35
2019-06-27T05:17:01.431Z,57.26
2019-06-27T05:17:37.684Z,57.32
2019-06-27T05:18:14.348Z,57.39
2019-06-27T05:18:51.342Z,57.61
2019-06-27T05:19:28.135Z,57.53
2019-06-27T05:20:04.949Z,57.57
2019-06-27T05:20:41.764Z,57.48
2019-06-27T05:21:17.798Z,57.31
2019-06-27T05:21:55.172Z,57.42
2019-06-27T05:22:31.791Z,57.36
2019-06-27T05:23:07.915Z,57.38
2019-06-27T05:23:45.389Z,57.35
2019-06-27T05:24:22.055Z,57.47
2019-06-27T05:24:58.070Z,57.45
2019-06-27T05:25:34.788Z,57.31
2019-06-27T05:26:11.492Z,57.36
2019-06-27T05:26:47.507Z,57.39
2019-06-27T05:27:24.325Z,57.33
2019-06-27T05:28:00.928Z,57.18
2019-06-27T05:28:37.099Z,57.25
2019-06-27T05:29:14.064Z,57.34
2019-06-27T05:29:51.073Z,57.24
2019-06-27T05:30:27.118Z,57.07
2019-06-27T05:31:03.898Z,57.14
2019-06-27T05:31:40.694Z,57.26
2019-06-27T05:32:16.781Z,57.10
2019-06-27T05:32:53.475Z,56.96
2019-06-27T05:33:30.071Z,56.98
2019-06-27T05:34:06.206Z,56.86
2019-06-27T05:34:42.888Z,57.03
2019-06-27T05:35:20.310Z,56.83
2019-06-27T05:35:56.384Z,57.04
2019-06-27T05:36:33.125Z,57.12
2019-06-27T05:37:09.809Z,57.11
2019-06-27T05:37:46.039Z,57.07
2019-06-27T05:38:23.004Z,57.15
2019-06-27T05:38:59.952Z,57.04
2019-06-27T05:39:36.167Z,56.96
2019-06-27T05:40:13.303Z,57.30
2019-06-27T05:40:49.948Z,57.35
2019-06-27T05:41:25.954Z,57.28
2019-06-27T05:42:02.571Z,57.17
2019-06-27T05:42:39.263Z,57.23
2019-06-27T05:43:15.410Z,57.36
2019-06-27T05:43:51.989Z,57.51
2019-06-27T05:44:28.931Z,57.50
2019-06-27T05:45:05.461Z,57.42
2019-06-27T05:45:42.142Z,57.09
2019-06-27T05:46:19.131Z,57.07
2019-06-27T05:46:55.177Z,56.91
2019-06-27T05:47:32.444Z,56.85
2019-06-27T05:48:09.151Z,56.83
2019-06-27T05:48:45.449Z,57.05
2019-06-27T05:49:22.027Z,56.91
2019-06-27T05:49:58.624Z,56.75
2019-06-27T05:50:35.265Z,56.29
2019-06-27T05:51:12.016Z,56.04
2019-06-27T05:51:48.955Z,56.24
2019-06-27T05:52:25.009Z,56.38
2019-06-27T05:53:01.976Z,56.04
2019-06-27T05:53:38.967Z,56.20
2019-06-27T05:54:14.984Z,56.05
2019-06-27T05:54:51.982Z,55.92
2019-06-27T05:55:28.598Z,56.16
2019-06-27T05:56:05.015Z,56.21
2019-06-27T05:56:41.847Z,56.36
2019-06-27T05:57:18.966Z,56.15
2019-06-27T05:57:55.389Z,56.14
2019-06-27T05:58:32.313Z,55.73
2019-06-27T05:59:09.308Z,55.75
2019-06-27T05:59:45.338Z,55.85
2019-06-27T06:00:29.006Z,55.95
2019-06-27T06:01:00.787Z,55.80
2019-06-27T06:01:36.894Z,55.86
2019-06-27T06:02:13.655Z,55.62
2019-06-27T06:02:50.277Z,56.07
2019-06-27T06:03:26.347Z,56.07
2019-06-27T06:04:03.029Z,55.84
2019-06-27T06:04:39.938Z,55.77
2019-06-27T06:05:16.095Z,55.76
2019-06-27T06:05:52.849Z,55.68
2019-06-27T06:06:29.440Z,55.60
2019-06-27T06:07:06.061Z,55.71
2019-06-27T06:07:43.022Z,55.75
2019-06-27T06:08:19.993Z,55.75
2019-06-27T06:08:56.365Z,55.84
2019-06-27T06:09:33.223Z,55.50
2019-06-27T06:10:10.476Z,55.63
2019-06-27T06:10:47.152Z,55.68
2019-06-27T06:11:24.053Z,55.52
2019-06-27T06:12:00.739Z,55.31
2019-06-27T06:12:37.452Z,55.41
2019-06-27T06:13:14.411Z,55.17
2019-06-27T06:13:51.688Z,55.34
2019-06-27T06:14:27.719Z,55.62
2019-06-27T06:15:04.526Z,55.68
2019-06-27T06:15:41.155Z,55.63
2019-06-27T06:16:17.616Z,55.58
2019-06-27T06:16:54.246Z,55.63
2019-06-27T06:17:31.205Z,55.64
2019-06-27T06:18:07.588Z,55.78
2019-06-27T06:18:44.406Z,55.83
2019-06-27T06:19:21.008Z,55.61
2019-06-27T06:19:57.042Z,55.38
2019-06-27T06:20:35.400Z,55.22
2019-06-27T06:21:12.117Z,55.02
2019-06-27T06:21:48.923Z,54.79
2019-06-27T06:22:25.529Z,54.60
2019-06-27T06:23:02.623Z,54.56
2019-06-27T06:23:39.113Z,54.27
2019-06-27T06:24:16.306Z,54.36
2019-06-27T06:24:52.909Z,54.43
2019-06-27T06:25:29.611Z,54.05
2019-06-27T06:26:06.489Z,53.77
2019-06-27T06:26:43.457Z,53.55
2019-06-27T06:27:19.626Z,53.67
2019-06-27T06:27:56.219Z,53.49
2019-06-27T06:28:32.864Z,53.25
2019-06-27T06:29:09.131Z,53.01
2019-06-27T06:29:46.149Z,52.99
2019-06-27T06:30:23.311Z,52.84
2019-06-27T06:30:59.325Z,52.83
2019-06-27T06:31:36.317Z,52.35
2019-06-27T06:32:13.413Z,52.36
2019-06-27T06:32:49.801Z,52.24
2019-06-27T06:33:26.414Z,52.10
2019-06-27T06:34:04.132Z,51.89
2019-06-27T06:34:40.463Z,51.57
2019-06-27T06:35:17.542Z,51.62
2019-06-27T06:35:54.175Z,51.76
2019-06-27T06:36:30.213Z,51.59
2019-06-27T06:37:08.140Z,51.71
2019-06-27T06:37:44.967Z,51.59
2019-06-27T06:38:20.983Z,51.57
2019-06-27T06:38:57.640Z,51.59
2019-06-27T06:39:34.331Z,51.11
2019-06-27T06:40:10.607Z,51.28
2019-06-27T06:40:47.364Z,50.99
2019-06-27T06:41:24.055Z,50.92
2019-06-27T06:42:00.066Z,51.16
2019-06-27T06:42:37.097Z,51.49
2019-06-27T06:43:13.758Z,51.33
2019-06-27T06:43:50.046Z,51.12
2019-06-27T06:44:26.967Z,51.17
2019-06-27T06:45:03.830Z,51.15
2019-06-27T06:45:40.298Z,50.73
2019-06-27T06:46:17.171Z,50.75
2019-06-27T06:46:53.802Z,51.10
2019-06-27T06:47:29.847Z,51.00
2019-06-27T06:48:06.863Z,51.07
2019-06-27T06:48:43.545Z,51.07
2019-06-27T06:49:19.874Z,50.85
2019-06-27T06:49:56.442Z,50.80
2019-06-27T06:50:33.399Z,50.81
2019-06-27T06:51:09.949Z,50.53
2019-06-27T06:51:46.582Z,50.69
2019-06-27T06:52:23.187Z,50.59
2019-06-27T06:52:59.198Z,50.31
2019-06-27T06:53:35.848Z,50.37
2019-06-27T06:54:12.584Z,50.62
2019-06-27T06:54:48.589Z,50.51
2019-06-27T06:55:25.200Z,50.37
2019-06-27T06:56:01.824Z,50.16
2019-06-27T06:56:38.140Z,49.93
2019-06-27T06:57:15.507Z,49.73
2019-06-27T06:57:52.145Z,49.61
2019-06-27T06:58:28.598Z,49.92
2019-06-27T06:59:05.990Z,49.64
2019-06-27T06:59:42.764Z,49.69
2019-06-27T07:00:20.712Z,49.82
2019-06-27T07:01:02.067Z,49.84
2019-06-27T07:01:35.741Z,49.66
2019-06-27T07:02:12.166Z,49.43
2019-06-27T07:02:48.778Z,48.99
2019-06-27T07:03:25.757Z,49.13
2019-06-27T07:04:02.548Z,49.07
2019-06-27T07:04:39.240Z,49.58
2019-06-27T07:05:15.849Z,49.43
2019-06-27T07:05:51.889Z,49.23
2019-06-27T07:06:28.565Z,49.38
2019-06-27T07:07:05.876Z,49.28
2019-06-27T07:07:41.909Z,48.99
2019-06-27T07:08:18.533Z,48.95
2019-06-27T07:08:55.421Z,48.94
2019-06-27T07:09:31.515Z,48.61
2019-06-27T07:10:08.377Z,48.31
2019-06-27T07:10:44.984Z,48.36
2019-06-27T07:11:20.999Z,48.20
2019-06-27T07:11:57.667Z,48.17
2019-06-27T07:12:34.327Z,48.03
2019-06-27T07:13:10.785Z,48.08
2019-06-27T07:13:47.375Z,47.58
2019-06-27T07:14:26.990Z,47.55
2019-06-27T07:15:02.123Z,47.52
2019-06-27T07:15:39.347Z,47.64
2019-06-27T07:16:16.704Z,47.63
2019-06-27T07:16:53.190Z,47.83
2019-06-27T07:17:30.702Z,47.93
2019-06-27T07:18:07.352Z,48.11
2019-06-27T07:18:43.363Z,48.10
2019-06-27T07:19:20.005Z,47.90
2019-06-27T07:19:57.650Z,47.86
2019-06-27T07:20:34.467Z,48.02
2019-06-27T07:21:11.208Z,48.26
2019-06-27T07:21:47.804Z,48.20
2019-06-27T07:22:24.192Z,48.43
2019-06-27T07:23:01.411Z,48.37
2019-06-27T07:23:38.175Z,48.52
2019-06-27T07:24:14.210Z,48.59
2019-06-27T07:24:51.232Z,48.31
2019-06-27T07:25:28.178Z,48.27
2019-06-27T07:26:05.230Z,48.07
2019-06-27T07:26:41.851Z,47.91
2019-06-27T07:27:18.453Z,48.12
2019-06-27T07:27:55.347Z,48.06
2019-06-27T07:28:31.984Z,48.30
2019-06-27T07:29:08.810Z,48.22
2019-06-27T07:29:45.176Z,47.92
2019-06-27T07:30:22.597Z,48.07
2019-06-27T07:30:59.347Z,47.94
2019-06-27T07:31:35.402Z,48.32
2019-06-27T07:32:12.528Z,48.10
2019-06-27T07:32:49.247Z,48.08
2019-06-27T07:33:25.628Z,48.25
2019-06-27T07:34:02.216Z,48.44
2019-06-27T07:34:39.298Z,48.06
2019-06-27T07:35:15.322Z,47.84
2019-06-27T07:35:53.007Z,47.56
2019-06-27T07:36:29.981Z,47.56
2019-06-27T07:37:06.123Z,47.45
2019-06-27T07:37:43.070Z,47.34
2019-06-27T07:38:20.376Z,47.05
2019-06-27T07:38:56.375Z,47.19
2019-06-27T07:39:33.468Z,47.31
2019-06-27T07:40:11.129Z,47.42
2019-06-27T07:40:47.553Z,47.34
2019-06-27T07:41:24.234Z,47.09
2019-06-27T07:42:01.280Z,46.81
2019-06-27T07:42:37.734Z,46.53
2019-06-27T07:43:14.751Z,46.29
2019-06-27T07:43:51.318Z,46.22
2019-06-27T07:44:27.997Z,46.58
2019-06-27T07:45:04.721Z,46.46
2019-06-27T07:45:41.385Z,46.17
2019-06-27T07:46:25.228Z,46.12
2019-06-27T07:46:56.381Z,46.40
2019-06-27T07:47:33.080Z,46.33
2019-06-27T07:48:09.408Z,45.90
2019-06-27T07:48:45.999Z,45.84
2019-06-27T07:49:22.600Z,45.75
2019-06-27T07:49:58.629Z,45.64
2019-06-27T07:50:35.349Z,45.27
2019-06-27T07:51:11.950Z,45.11
2019-06-27T07:51:47.989Z,44.98
2019-06-27T07:52:24.622Z,44.94